createdAt,value
2022-09-30T00:00:22.980Z,3.8
2022-09-30T00:02:24.360Z,4.6
2022-09-30T00:04:25.741Z,4.3
2022-09-30T00:06:27.112Z,11.4
2022-09-30T00:08:28.498Z,10.9
2022-09-30T00:10:33.257Z,14.4
2022-09-30T00:12:34.745Z,3.2
2022-09-30T00:14:36.201Z,3.8
2022-09-30T00:15:38.635Z,2.8
2022-09-30T00:17:40.120Z,5.5
2022-09-30T00:19:41.467Z,7.4
2022-09-30T00:21:42.939Z,4.6
2022-09-30T00:25:49.146Z,3.1
2022-09-30T00:27:50.526Z,2.8
2022-09-30T00:31:53.514Z,2.8
2022-09-30T00:33:54.799Z,3.5
2022-09-30T00:35:56.182Z,3.1
2022-09-30T00:38:00.921Z,3.3
2022-09-30T00:40:02.404Z,2.3
2022-09-30T00:44:05.254Z,6.7
2022-09-30T00:46:06.651Z,11.6
2022-09-30T00:48:08.118Z,7.9
2022-09-30T00:50:09.463Z,2.6
2022-09-30T00:52:14.245Z,2.7
2022-09-30T00:54:15.606Z,8.9
2022-09-30T01:00:20.009Z,1.1
2022-09-30T01:02:21.644Z,2.2
2022-09-30T01:04:22.928Z,1.8
2022-09-30T01:06:27.706Z,2
2022-09-30T01:08:29.170Z,4.3
2022-09-30T01:10:30.608Z,10.6
2022-09-30T01:11:32.941Z,2.5
2022-09-30T01:13:34.327Z,2
2022-09-30T01:15:35.797Z,2.2
2022-09-30T01:17:37.260Z,1.7
2022-09-30T01:19:42.004Z,4.6
2022-09-30T01:21:43.411Z,2.2
2022-09-30T01:29:49.332Z,1.7
2022-09-30T01:31:50.745Z,2.3
2022-09-30T01:37:58.154Z,2.8
2022-09-30T01:39:59.613Z,3.2
2022-09-30T01:42:00.956Z,3.1
2022-09-30T01:44:02.412Z,2.7
2022-09-30T01:46:03.889Z,3.1
2022-09-30T01:48:08.546Z,4.5
2022-09-30T01:50:09.892Z,10.9
2022-09-30T01:52:11.353Z,2.5
2022-09-30T01:54:12.804Z,2.3
2022-09-30T01:56:14.274Z,3.9
2022-09-30T01:58:15.721Z,3
2022-09-30T02:00:17.077Z,1.9
2022-09-30T02:02:22.021Z,3
2022-09-30T02:04:23.425Z,1.9
2022-09-30T02:08:52.014Z,3
2022-09-30T02:10:53.375Z,2.6
2022-09-30T02:14:59.669Z,9.2
2022-09-30T02:17:01.132Z,1.8
2022-09-30T02:19:02.591Z,2.4
2022-09-30T02:23:05.529Z,5
2022-09-30T02:25:06.972Z,2.8
2022-09-30T02:29:13.263Z,3
2022-09-30T02:31:14.844Z,6.5
2022-09-30T02:33:16.181Z,1.6
2022-09-30T02:35:18.081Z,3.7
2022-09-30T02:37:18.991Z,5.2
2022-09-30T02:39:20.434Z,8.1
2022-09-30T02:41:21.867Z,1.9
2022-09-30T02:43:26.706Z,3
2022-09-30T02:45:28.179Z,2
2022-09-30T02:47:29.626Z,1.7
2022-09-30T02:49:31.097Z,3.6
2022-09-30T02:51:32.551Z,3.1
2022-09-30T02:53:34.022Z,1.2
2022-09-30T02:55:35.453Z,2.5
2022-09-30T02:57:40.297Z,2.2
2022-09-30T02:59:41.753Z,2
2022-09-30T03:01:43.254Z,6.8
2022-09-30T03:02:45.617Z,6.7
2022-09-30T03:04:47.057Z,13.2
2022-09-30T03:06:48.496Z,6.1
2022-09-30T03:08:49.985Z,3.3
2022-09-30T03:10:54.827Z,4.4
2022-09-30T03:12:56.264Z,2.7
2022-09-30T03:16:59.175Z,2.6
2022-09-30T03:19:00.601Z,4.8
2022-09-30T03:21:02.049Z,2.2
2022-09-30T03:23:03.466Z,2.4
2022-09-30T03:25:08.296Z,2.4
2022-09-30T03:27:09.749Z,3.2
2022-09-30T03:29:11.174Z,3.4
2022-09-30T03:31:12.789Z,2.1
2022-09-30T03:33:14.098Z,5.7
2022-09-30T03:35:15.535Z,5.3
2022-09-30T03:39:21.930Z,6
2022-09-30T03:41:23.297Z,4.5
2022-09-30T03:43:24.735Z,7.6
2022-09-30T03:49:29.052Z,5.7
2022-09-30T03:51:30.467Z,4.1
2022-09-30T03:53:35.312Z,5.5
2022-09-30T03:55:36.762Z,13.2
2022-09-30T03:57:38.188Z,26.1
2022-09-30T03:58:40.595Z,19.5
2022-09-30T04:00:42.092Z,32.7
2022-09-30T04:02:43.486Z,50.5
2022-09-30T04:04:44.952Z,28.7
2022-09-30T04:06:51.471Z,33.1
2022-09-30T04:08:52.853Z,34.8
2022-09-30T04:10:54.292Z,30.4
2022-09-30T04:12:55.769Z,23.2
2022-09-30T04:14:57.207Z,20.3
2022-09-30T04:16:58.648Z,28.6
2022-09-30T04:19:00.118Z,31.2
2022-09-30T04:21:04.925Z,27.5
2022-09-30T04:23:06.354Z,28.9
2022-09-30T04:25:07.817Z,31.6
2022-09-30T04:27:09.276Z,30.3
2022-09-30T04:29:10.729Z,26.7
2022-09-30T04:31:12.270Z,22.6
2022-09-30T04:33:13.621Z,26.8
2022-09-30T04:35:18.613Z,39.5
2022-09-30T04:37:19.901Z,21
2022-09-30T04:39:21.591Z,26.6
2022-09-30T04:41:22.772Z,22.6
2022-09-30T04:43:24.241Z,22.7
2022-09-30T04:45:25.726Z,16.7
2022-09-30T04:49:31.951Z,42.3
2022-09-30T04:53:34.834Z,26.7
2022-09-30T04:54:37.248Z,29.7
2022-09-30T04:56:38.672Z,26.5
2022-09-30T04:58:40.149Z,40.9
2022-09-30T05:00:41.654Z,25.6
2022-09-30T05:02:46.396Z,60.4
2022-09-30T05:04:47.855Z,28.1
2022-09-30T05:06:49.316Z,44.6
2022-09-30T05:08:50.728Z,34.4
2022-09-30T05:10:52.175Z,22.3
2022-09-30T05:12:53.586Z,32.9
2022-09-30T05:16:59.857Z,51.9
2022-09-30T05:19:01.311Z,45.2
2022-09-30T05:21:02.744Z,43.3
2022-09-30T05:23:04.177Z,47.6
2022-09-30T05:25:05.610Z,37.9
2022-09-30T05:27:07.056Z,46.6
2022-09-30T05:29:08.521Z,31.3
2022-09-30T05:31:13.511Z,55.4
2022-09-30T05:33:14.809Z,47.9
2022-09-30T05:35:16.253Z,56.5
2022-09-30T05:37:17.694Z,40.5
2022-09-30T05:39:19.184Z,48.5
2022-09-30T05:41:20.585Z,19.9
2022-09-30T05:43:22.047Z,36.7
2022-09-30T05:45:26.907Z,21
2022-09-30T05:47:28.349Z,28.2
2022-09-30T05:49:29.801Z,30.8
2022-09-30T05:51:52.766Z,27
2022-09-30T05:53:54.217Z,25
2022-09-30T05:55:55.674Z,34.3
2022-09-30T05:58:00.511Z,53.7
2022-09-30T06:02:03.462Z,32.5
2022-09-30T06:04:04.845Z,38.8
2022-09-30T06:06:06.307Z,40.6
2022-09-30T06:10:09.204Z,42.1
2022-09-30T06:14:15.528Z,95.5
2022-09-30T06:18:18.314Z,79
2022-09-30T06:20:19.703Z,94.8
2022-09-30T06:22:21.067Z,109.1
2022-09-30T06:24:22.486Z,109.5
2022-09-30T06:26:27.233Z,135.9
2022-09-30T06:28:28.666Z,93.7
2022-09-30T06:30:34.913Z,94.5
2022-09-30T06:32:31.507Z,88.9
2022-09-30T06:34:32.896Z,134.9
2022-09-30T06:36:34.297Z,144
2022-09-30T06:38:35.681Z,145.1
2022-09-30T06:40:40.385Z,160.7
2022-09-30T06:42:41.764Z,150.8
2022-09-30T06:44:50.429Z,200.4
2022-09-30T06:45:45.545Z,200.1
2022-09-30T06:49:49.847Z,164.3
2022-09-30T06:51:49.723Z,156.2
2022-09-30T06:53:54.463Z,171.9
2022-09-30T06:55:55.841Z,143.5
2022-09-30T06:59:58.696Z,132
2022-09-30T07:02:00.197Z,132.2
2022-09-30T07:04:01.520Z,133.6
2022-09-30T07:12:10.515Z,90.4
2022-09-30T07:14:11.933Z,103.2
2022-09-30T07:16:13.415Z,85.5
2022-09-30T07:18:14.807Z,81.6
2022-09-30T07:20:16.246Z,64.3
2022-09-30T07:22:20.954Z,93.3
2022-09-30T07:24:22.373Z,81.1
2022-09-30T07:26:23.787Z,73.2
2022-09-30T07:28:25.234Z,73.4
2022-09-30T07:30:27.531Z,61.9
2022-09-30T07:32:28.162Z,73.6
2022-09-30T07:34:29.510Z,61.5
2022-09-30T07:36:34.331Z,68.4
2022-09-30T07:38:35.674Z,63.6
2022-09-30T07:40:37.108Z,70.1
2022-09-30T07:51:49.943Z,58.8
2022-09-30T07:53:51.336Z,52.3
2022-09-30T07:55:52.769Z,52.7
2022-09-30T07:57:54.202Z,49.5
2022-09-30T07:59:55.614Z,49.9
2022-09-30T08:01:57.115Z,52.1
2022-09-30T08:04:01.786Z,51.6
2022-09-30T08:06:03.255Z,51.6
2022-09-30T08:08:04.663Z,44.9
2022-09-30T08:10:06.128Z,52.9
2022-09-30T08:12:07.545Z,54.3
2022-09-30T08:14:08.965Z,44.7
2022-09-30T08:16:10.421Z,36.7
2022-09-30T08:18:15.107Z,44.5
2022-09-30T08:20:21.457Z,32.9
2022-09-30T08:22:17.951Z,37.4
2022-09-30T08:24:19.382Z,35.6
2022-09-30T08:30:23.630Z,24.7
2022-09-30T08:32:28.390Z,35.1
2022-09-30T08:34:29.797Z,25.9
2022-09-30T08:36:31.233Z,23.7
2022-09-30T08:37:33.593Z,28.6
2022-09-30T08:39:35.004Z,33.9
2022-09-30T08:41:36.402Z,22.8
2022-09-30T08:43:37.868Z,14.5
2022-09-30T08:45:42.645Z,15.1
2022-09-30T08:47:43.996Z,14.3
2022-09-30T08:49:45.423Z,14.8
2022-09-30T08:51:46.821Z,13.8
2022-09-30T08:53:48.247Z,9.7
2022-09-30T08:59:55.838Z,13.3
2022-09-30T09:01:57.377Z,14.7
2022-09-30T09:03:58.656Z,14.4
2022-09-30T09:06:00.117Z,11.9
2022-09-30T09:08:01.486Z,13.2
2022-09-30T09:10:02.945Z,18.2
2022-09-30T09:12:04.334Z,12.1
2022-09-30T09:14:09.095Z,11.2
2022-09-30T09:16:10.562Z,10.4
2022-09-30T09:18:23.201Z,19.1
2022-09-30T09:20:13.278Z,14.5
2022-09-30T09:22:14.682Z,12.9
2022-09-30T09:24:16.128Z,24.5
2022-09-30T09:26:17.539Z,15.7
2022-09-30T09:28:22.331Z,14.7
2022-09-30T09:30:23.616Z,9.6
2022-09-30T09:32:25.051Z,9.9
2022-09-30T09:34:47.836Z,12.7
2022-09-30T09:36:49.226Z,6.8
2022-09-30T09:38:50.676Z,11.4
2022-09-30T09:40:55.411Z,9.7
2022-09-30T09:42:56.829Z,12.7
2022-09-30T09:44:58.191Z,9.1
2022-09-30T09:46:59.592Z,10.9
2022-09-30T09:49:00.992Z,9.5
2022-09-30T09:51:02.382Z,12.5
2022-09-30T09:53:03.782Z,9.4
2022-09-30T09:55:08.506Z,9.5
2022-09-30T09:57:11.478Z,10.2
2022-09-30T09:59:12.846Z,8.6
2022-09-30T10:01:14.291Z,11
2022-09-30T10:03:15.679Z,8
2022-09-30T10:05:17.056Z,11.6
2022-09-30T10:07:18.486Z,4
2022-09-30T10:09:23.387Z,10.9
2022-09-30T10:11:24.628Z,10.9
2022-09-30T10:13:26.000Z,11.2
2022-09-30T10:15:27.433Z,4.2
2022-09-30T10:17:28.869Z,14.2
2022-09-30T10:19:30.252Z,8.6
2022-09-30T10:21:31.651Z,14.1
2022-09-30T10:23:36.348Z,8.8
2022-09-30T10:25:37.788Z,12.7
2022-09-30T10:27:39.169Z,9.7
2022-09-30T10:28:41.522Z,11.2
2022-09-30T10:30:43.032Z,12.7
2022-09-30T10:32:44.359Z,11.9
2022-09-30T10:34:45.732Z,18
2022-09-30T10:36:50.462Z,8.4
2022-09-30T10:38:51.909Z,6.4
2022-09-30T10:40:53.270Z,12.1
2022-09-30T10:44:56.074Z,11.6
2022-09-30T10:46:57.744Z,14.6
2022-09-30T10:48:58.874Z,12.6
2022-09-30T10:51:03.623Z,11.1
2022-09-30T10:53:05.034Z,8.1
2022-09-30T10:55:12.562Z,11.3
2022-09-30T10:57:07.848Z,5.9
2022-09-30T10:59:09.255Z,10.8
2022-09-30T11:01:10.731Z,11.1
2022-09-30T11:03:12.265Z,12.3
2022-09-30T11:05:16.821Z,11.4
2022-09-30T11:09:19.612Z,5.2
2022-09-30T11:11:21.041Z,6.3
2022-09-30T11:13:22.426Z,8
2022-09-30T11:15:23.844Z,10.7
2022-09-30T11:17:25.219Z,15.2
2022-09-30T11:19:29.954Z,12.3
2022-09-30T11:21:31.327Z,11.1
2022-09-30T11:23:32.740Z,6.9
2022-09-30T11:24:35.104Z,6.4
2022-09-30T11:26:36.473Z,9.1
2022-09-30T11:28:37.902Z,6.8
2022-09-30T11:30:39.316Z,2.4
2022-09-30T11:32:44.031Z,16.4
2022-09-30T11:34:45.467Z,7
2022-09-30T11:36:46.834Z,12.3
2022-09-30T11:38:48.295Z,8.4
2022-09-30T11:40:49.655Z,5.2
2022-09-30T11:42:51.029Z,6.2
2022-09-30T11:44:52.454Z,8.9
2022-09-30T11:46:57.170Z,6.7
2022-09-30T11:48:58.588Z,9
2022-09-30T11:51:00.006Z,9.9
2022-09-30T11:53:01.383Z,8.7
2022-09-30T11:55:02.795Z,6.2
2022-09-30T11:57:04.045Z,12.7
2022-09-30T11:59:05.482Z,6.2
2022-09-30T12:01:10.060Z,5.6
2022-09-30T12:03:11.522Z,8.2
2022-09-30T12:05:12.889Z,6.4
2022-09-30T12:07:14.306Z,14.2
2022-09-30T12:09:15.860Z,6.7
2022-09-30T12:11:17.095Z,6.6
2022-09-30T12:13:18.485Z,4.1
2022-09-30T12:15:23.231Z,6.5
2022-09-30T12:17:24.634Z,6.8
2022-09-30T12:19:26.045Z,8.4
2022-09-30T12:20:28.390Z,5.8
2022-09-30T12:22:29.760Z,10.3
2022-09-30T12:24:31.180Z,8.9
2022-09-30T12:26:32.683Z,8.4
2022-09-30T12:28:37.290Z,8.9
2022-09-30T12:30:38.686Z,7.2
2022-09-30T12:32:39.989Z,7.8
2022-09-30T12:34:41.409Z,11.1
2022-09-30T12:36:42.767Z,8.4
2022-09-30T12:38:44.069Z,4.9
2022-09-30T12:40:50.186Z,6
2022-09-30T12:42:50.225Z,6.9
2022-09-30T12:44:51.614Z,4.8
2022-09-30T12:46:53.000Z,2.9
2022-09-30T12:50:55.781Z,4.1
2022-09-30T12:52:57.166Z,7.5
2022-09-30T12:54:58.555Z,2.5
2022-09-30T12:59:04.479Z,4.9
2022-09-30T13:01:05.938Z,3.9
2022-09-30T13:03:07.251Z,2.7
2022-09-30T13:05:08.628Z,2.3
2022-09-30T13:07:09.909Z,2.4
2022-09-30T13:09:11.253Z,2.9
2022-09-30T13:11:15.828Z,6
2022-09-30T13:13:17.223Z,3.4
2022-09-30T13:15:18.619Z,4
2022-09-30T13:17:35.466Z,2
2022-09-30T13:19:36.802Z,1.4
2022-09-30T13:21:38.200Z,2.1
2022-09-30T13:23:42.877Z,1.6
2022-09-30T13:25:44.308Z,3.1
2022-09-30T13:27:45.763Z,1.6
2022-09-30T13:29:47.009Z,6.4
2022-09-30T13:31:48.466Z,2.6
2022-09-30T13:33:49.767Z,2.9
2022-09-30T13:35:51.191Z,1.5
2022-09-30T13:37:55.919Z,1.6
2022-09-30T13:39:57.317Z,2.8
2022-09-30T13:41:58.683Z,1.5
2022-09-30T13:44:00.094Z,0.9
2022-09-30T13:46:01.549Z,1.4
2022-09-30T13:48:02.869Z,1
2022-09-30T13:50:04.296Z,1.1
2022-09-30T13:52:10.613Z,2.5
2022-09-30T13:54:10.407Z,0.2
2022-09-30T13:56:11.782Z,1.9
2022-09-30T13:58:13.184Z,1.3
2022-09-30T14:00:14.554Z,2
2022-09-30T14:02:20.159Z,2.5
2022-09-30T14:04:17.608Z,1.4
2022-09-30T14:06:22.345Z,0.7
2022-09-30T14:08:23.770Z,1.4
2022-09-30T14:10:25.133Z,0.9
2022-09-30T14:11:27.517Z,0.8
2022-09-30T14:13:28.887Z,1.9
2022-09-30T14:15:30.240Z,0.8
2022-09-30T14:17:31.623Z,2.3
2022-09-30T14:19:36.190Z,3.9
2022-09-30T14:21:37.566Z,1.2
2022-09-30T14:23:38.902Z,1
2022-09-30T14:25:40.267Z,1.4
2022-09-30T14:27:41.942Z,1.4
2022-09-30T14:29:43.077Z,0.2
2022-09-30T14:31:44.602Z,1.6
2022-09-30T14:33:49.210Z,2.7
2022-09-30T14:35:50.505Z,0.8
2022-09-30T14:37:51.792Z,1.5
2022-09-30T14:39:53.249Z,1.3
2022-09-30T14:41:54.630Z,0.9
2022-09-30T14:43:56.015Z,2.3
2022-09-30T14:45:57.481Z,2.2
2022-09-30T14:48:02.107Z,0.6
2022-09-30T14:52:04.793Z,0.9
2022-09-30T14:54:06.259Z,1.3
2022-09-30T14:56:07.607Z,2.9
2022-09-30T14:58:09.001Z,0.9
2022-09-30T15:00:10.409Z,1.6
2022-09-30T15:02:15.130Z,1.5
2022-09-30T15:04:16.624Z,1.2
2022-09-30T15:06:17.996Z,1.6
2022-09-30T15:09:21.724Z,1.3
2022-09-30T15:19:32.054Z,1
2022-09-30T15:21:33.448Z,1.1
2022-09-30T15:35:46.627Z,0.8
2022-09-30T15:39:49.419Z,1.8
2022-09-30T15:41:50.826Z,0.9
2022-09-30T15:43:55.553Z,3.2
2022-09-30T15:45:57.074Z,1.3
2022-09-30T15:52:02.708Z,0.4
2022-09-30T15:54:04.112Z,1.4
2022-09-30T15:56:05.531Z,1.5
2022-09-30T16:00:11.657Z,1.7
2022-09-30T16:02:13.094Z,1.1
2022-09-30T16:03:15.501Z,2.8
2022-09-30T16:05:16.871Z,1.4
2022-09-30T16:07:18.284Z,3.5
2022-09-30T16:09:19.701Z,1.7
2022-09-30T16:11:24.441Z,3.8
2022-09-30T16:13:25.875Z,3.6
2022-09-30T16:15:27.276Z,7.3
2022-09-30T16:17:29.283Z,0.9
2022-09-30T16:23:33.533Z,2.6
2022-09-30T16:25:38.280Z,8.8
2022-09-30T16:27:39.651Z,0.9
2022-09-30T16:29:41.100Z,0.8
2022-09-30T16:31:42.531Z,2
2022-09-30T16:37:46.798Z,2.9
2022-09-30T16:39:51.545Z,1.9
2022-09-30T16:41:52.992Z,4.4
2022-09-30T16:43:54.399Z,1.5
2022-09-30T16:45:55.886Z,4.5
2022-09-30T16:47:57.270Z,1.1
2022-09-30T16:49:58.673Z,3.5
2022-09-30T16:52:00.140Z,2.7
2022-09-30T16:54:04.850Z,0.6
2022-09-30T16:56:06.264Z,8.5
2022-09-30T16:58:07.706Z,2.2
2022-09-30T17:04:34.248Z,2.5
2022-09-30T17:06:37.980Z,2.3
2022-09-30T17:14:43.723Z,2.1
2022-09-30T17:16:45.207Z,2.3
2022-09-30T17:18:46.555Z,2.1
2022-09-30T17:22:52.745Z,2.4
2022-09-30T17:26:55.621Z,3
2022-09-30T17:29:08.761Z,4.3
2022-09-30T17:30:58.464Z,2.8
2022-09-30T17:32:59.908Z,10.5
2022-09-30T17:35:04.663Z,6.6
2022-09-30T17:37:09.236Z,8.7
2022-09-30T17:39:07.525Z,3.7
2022-09-30T17:41:08.919Z,2.2
2022-09-30T17:43:10.341Z,6.7
2022-09-30T17:45:11.796Z,2.6
2022-09-30T17:47:13.355Z,4.1
2022-09-30T17:49:23.303Z,4.2
2022-09-30T17:51:19.415Z,2.3
2022-09-30T17:53:20.844Z,9.7
2022-09-30T17:54:23.230Z,3.2
2022-09-30T17:58:26.104Z,4
2022-09-30T18:00:27.556Z,3.6
2022-09-30T18:02:32.386Z,1.5
2022-09-30T18:04:33.760Z,7.2
2022-09-30T18:06:35.191Z,1.3
2022-09-30T18:08:36.594Z,4.3
2022-09-30T18:10:38.055Z,1.6
2022-09-30T18:12:39.527Z,10.8
2022-09-30T18:14:40.919Z,11.8
2022-09-30T18:16:45.732Z,5.8
2022-09-30T18:18:47.090Z,3.9
2022-09-30T18:20:48.528Z,5.8
2022-09-30T18:22:50.010Z,4.4
2022-09-30T18:26:52.907Z,3.2
2022-09-30T18:28:54.311Z,3.3
2022-09-30T18:30:59.046Z,12.7
2022-09-30T18:33:00.486Z,2.5
2022-09-30T18:35:01.955Z,2.4
2022-09-30T18:37:03.362Z,9.4
2022-09-30T18:39:04.956Z,2.3
2022-09-30T18:41:06.254Z,2.7
2022-09-30T18:43:07.680Z,28.5
2022-09-30T18:45:12.394Z,3.5
2022-09-30T18:47:13.879Z,3.5
2022-09-30T18:49:15.303Z,2.1
2022-09-30T18:50:17.704Z,7.6
2022-09-30T18:52:19.107Z,2.1
2022-09-30T18:54:20.563Z,1.1
2022-09-30T18:56:22.015Z,5
2022-09-30T18:58:26.744Z,3.6
2022-09-30T19:00:28.198Z,3.9
2022-09-30T19:02:29.854Z,1.7
2022-09-30T19:04:31.109Z,6.2
2022-09-30T19:06:32.518Z,9.5
2022-09-30T19:08:33.965Z,7.4
2022-09-30T19:10:35.406Z,2.8
2022-09-30T19:12:40.173Z,3.9
2022-09-30T19:14:41.607Z,4.5
2022-09-30T19:16:43.143Z,4.6
2022-09-30T19:18:44.477Z,2.5
2022-09-30T19:20:45.922Z,2.6
2022-09-30T19:26:53.510Z,3.9
2022-09-30T19:28:54.967Z,2.4
2022-09-30T19:30:56.423Z,2
2022-09-30T19:32:57.882Z,2.9
2022-09-30T19:35:05.429Z,2.9
2022-09-30T19:37:00.748Z,4.8
2022-09-30T19:39:11.167Z,2
2022-09-30T19:41:06.922Z,3.8
2022-09-30T19:43:08.373Z,3.5
2022-09-30T19:45:09.793Z,2.1
2022-09-30T19:46:12.322Z,2.6
2022-09-30T19:48:13.599Z,3.2
2022-09-30T19:50:15.026Z,0.9
2022-09-30T19:52:21.419Z,3
2022-09-30T19:54:25.345Z,2.7
2022-09-30T19:56:22.650Z,3
2022-09-30T19:58:24.109Z,1.6
2022-09-30T20:00:25.556Z,0.5
2022-09-30T20:02:27.047Z,1.8
2022-09-30T20:04:28.432Z,1.8
2022-09-30T20:06:29.864Z,9.3
2022-09-30T20:08:34.606Z,2.7
2022-09-30T20:10:36.060Z,6.6
2022-09-30T20:12:37.524Z,1.8
2022-09-30T20:14:38.957Z,2.8
2022-09-30T20:16:40.447Z,1.3
2022-09-30T20:18:41.859Z,1.2
2022-09-30T20:20:43.287Z,2.4
2022-09-30T20:22:48.011Z,1.3
2022-09-30T20:24:49.443Z,0.6
2022-09-30T20:26:50.883Z,2.4
2022-09-30T20:28:52.346Z,1.2
2022-09-30T20:30:53.780Z,5
2022-09-30T20:37:01.383Z,4
2022-09-30T20:39:02.789Z,3
2022-09-30T20:41:04.227Z,2.1
2022-09-30T20:43:27.229Z,0.8
2022-09-30T20:45:28.697Z,2.7
2022-09-30T20:47:30.107Z,2.9
2022-09-30T20:49:34.872Z,0.7
2022-09-30T20:51:36.462Z,2.3
2022-09-30T20:55:39.155Z,2.3
2022-09-30T20:57:40.607Z,0.4
2022-09-30T20:59:42.001Z,4.4
2022-09-30T21:01:43.530Z,0.8
2022-09-30T21:03:48.499Z,2.2
2022-09-30T21:05:49.659Z,1.6
2022-09-30T21:07:51.094Z,1.2
2022-09-30T21:18:01.625Z,2.7
2022-09-30T21:22:04.461Z,1.5
2022-09-30T21:26:07.336Z,0.9
2022-09-30T21:28:08.860Z,1.4
2022-09-30T21:30:10.228Z,2.1
2022-09-30T21:32:14.999Z,1.1
2022-09-30T21:34:16.404Z,1.7
2022-09-30T21:36:17.835Z,1.5
2022-09-30T21:39:23.207Z,2.1
2022-09-30T21:41:24.565Z,1.9
2022-09-30T21:43:26.006Z,2.1
2022-09-30T21:45:30.845Z,1.9
2022-09-30T21:47:32.180Z,1.6
2022-09-30T21:49:33.642Z,1
2022-09-30T21:51:35.588Z,0.5
2022-09-30T21:53:36.493Z,1.7
2022-09-30T21:55:37.900Z,2.8
2022-09-30T21:57:39.363Z,0.8
2022-09-30T21:59:48.534Z,3.7
2022-09-30T22:01:45.519Z,0.4
2022-09-30T22:03:46.971Z,8.7
2022-09-30T22:05:48.401Z,6.4
2022-09-30T22:07:49.811Z,2
2022-09-30T22:09:51.275Z,3
2022-09-30T22:13:57.516Z,2.5
2022-09-30T22:18:00.310Z,5.3
2022-09-30T22:20:01.785Z,5
2022-09-30T22:22:03.204Z,1.1
2022-09-30T22:24:04.629Z,2.3
2022-09-30T22:26:06.057Z,1
2022-09-30T22:30:12.222Z,2.2
2022-09-30T22:32:13.738Z,1.3
2022-09-30T22:33:16.039Z,4.3
2022-09-30T22:35:17.461Z,9.2
2022-09-30T22:37:18.914Z,2.2
2022-09-30T22:39:20.348Z,1.7
2022-09-30T22:41:25.207Z,1.2
2022-09-30T22:43:26.562Z,3.7
2022-09-30T22:45:28.004Z,2.3
2022-09-30T22:47:29.389Z,2.5
2022-09-30T22:49:30.818Z,1
2022-09-30T22:51:32.549Z,2.6
2022-09-30T22:55:38.445Z,4.2
2022-09-30T22:57:39.871Z,5.8
2022-09-30T22:59:41.328Z,5.1
2022-09-30T23:13:58.957Z,2.9
2022-09-30T23:15:56.099Z,5.5
2022-09-30T23:17:57.580Z,5.6
2022-09-30T23:19:59.018Z,6.4
2022-09-30T23:24:05.170Z,4.8
2022-09-30T23:26:06.629Z,5.4
2022-09-30T23:28:08.118Z,5.7
2022-09-30T23:29:10.433Z,1.9
2022-09-30T23:31:11.889Z,7.5
2022-09-30T23:33:13.320Z,5.8
2022-09-30T23:35:14.768Z,2.8
2022-09-30T23:37:19.524Z,3.4
2022-09-30T23:39:20.949Z,7.2
2022-09-30T23:41:22.488Z,4.4
2022-09-30T23:43:23.823Z,2.7
2022-09-30T23:45:25.298Z,5.4
2022-09-30T23:47:26.725Z,4.6
2022-09-30T23:49:28.266Z,5.9
2022-09-30T23:51:33.129Z,6.8
2022-09-30T23:57:38.391Z,5.7
2022-09-30T23:59:38.682Z,3.8
